createdAt,value
2019-03-10T00:02:37.148Z,82.28
2019-03-10T00:05:45.589Z,81.89
2019-03-10T00:08:14.361Z,81.37
2019-03-10T00:11:02.163Z,81.38
2019-03-10T00:13:30.860Z,81.13
2019-03-10T00:16:18.869Z,81.36
2019-03-10T00:19:06.872Z,81.13
2019-03-10T00:21:35.633Z,81.44
2019-03-10T00:24:04.325Z,81.25
2019-03-10T00:26:32.999Z,81.06
2019-03-10T00:29:01.806Z,81.13
2019-03-10T00:31:30.503Z,81.28
2019-03-10T00:33:59.206Z,81.26
2019-03-10T00:36:47.251Z,81.46
2019-03-10T00:39:55.736Z,81.73
2019-03-10T00:43:04.293Z,82.42
2019-03-10T00:46:11.427Z,82.14
2019-03-10T00:49:18.560Z,82.25
2019-03-10T00:55:01.843Z,82.50
2019-03-10T00:57:49.776Z,82.86
2019-03-10T01:00:58.200Z,83.11
2019-03-10T01:03:46.019Z,83.55
2019-03-10T01:06:14.671Z,83.73
2019-03-10T01:09:02.588Z,83.58
2019-03-10T01:11:50.373Z,83.85
2019-03-10T01:14:38.200Z,84.03
2019-03-10T01:20:54.786Z,84.69
2019-03-10T01:26:18.371Z,84.90
2019-03-10T01:28:47.083Z,85.55
2019-03-10T01:31:54.242Z,85.24
2019-03-10T01:35:01.498Z,85.30
2019-03-10T01:37:30.208Z,85.26
2019-03-10T01:39:58.902Z,85.80
2019-03-10T01:42:46.708Z,85.90
2019-03-10T01:45:15.386Z,86.24
2019-03-10T01:48:03.199Z,86.68
2019-03-10T01:50:31.877Z,87.06
2019-03-10T01:53:00.541Z,87.33
2019-03-10T01:55:48.416Z,87.45
2019-03-10T01:58:17.109Z,87.42
2019-03-10T02:01:05.132Z,87.39
2019-03-10T02:06:21.529Z,87.79
2019-03-10T02:08:50.165Z,87.67
2019-03-10T02:14:14.337Z,87.24
2019-03-10T02:16:44.712Z,87.45
2019-03-10T02:19:13.355Z,86.97
2019-03-10T02:21:42.114Z,86.32
2019-03-10T02:24:29.917Z,85.81
2019-03-10T02:27:17.652Z,85.83
2019-03-10T02:30:05.751Z,85.88
2019-03-10T02:32:36.045Z,85.85
2019-03-10T02:35:44.481Z,85.50
2019-03-10T02:38:32.493Z,85.90
2019-03-10T02:41:20.347Z,85.61
2019-03-10T02:43:49.041Z,85.87
2019-03-10T02:46:17.689Z,86.19
2019-03-10T02:48:47.213Z,85.40
2019-03-10T02:51:17.688Z,85.24
2019-03-10T02:54:05.590Z,85.29
2019-03-10T02:56:46.701Z,85.18
2019-03-10T02:59:15.447Z,85.40
2019-03-10T03:02:03.681Z,85.50
2019-03-10T03:04:32.416Z,85.39
2019-03-10T03:07:01.098Z,84.98
2019-03-10T03:12:36.912Z,85.32
2019-03-10T03:15:45.408Z,85.21
2019-03-10T03:21:26.682Z,84.89
2019-03-10T03:24:14.632Z,84.43
2019-03-10T03:26:43.316Z,84.41
2019-03-10T03:29:12.160Z,84.18
2019-03-10T03:31:59.956Z,84.23
2019-03-10T03:34:47.897Z,84.25
2019-03-10T03:37:35.981Z,84.29
2019-03-10T03:40:44.564Z,83.99
2019-03-10T03:43:13.276Z,84.22
2019-03-10T03:46:02.792Z,84.16
2019-03-10T03:48:50.608Z,85.34
2019-03-10T03:51:38.470Z,86.73
2019-03-10T03:54:07.281Z,88.16
2019-03-10T03:56:55.172Z,90.14
2019-03-10T03:59:42.919Z,91.65
2019-03-10T04:02:49.938Z,92.52
2019-03-10T04:05:18.612Z,94.70
2019-03-10T04:08:06.565Z,95.95
2019-03-10T04:10:35.392Z,96.82
2019-03-10T04:13:04.025Z,97.82
2019-03-10T04:15:51.998Z,98.26
2019-03-10T04:18:20.555Z,99.29
2019-03-10T04:20:49.208Z,99.71
2019-03-10T04:23:17.888Z,100.00
2019-03-10T04:26:05.587Z,100.00
2019-03-10T04:28:53.457Z,100.00
2019-03-10T04:31:41.358Z,100.00
2019-03-10T04:34:29.104Z,100.00
2019-03-10T04:36:57.712Z,100.00
2019-03-10T04:39:45.618Z,100.00
2019-03-10T04:42:33.496Z,100.00
2019-03-10T04:45:21.371Z,100.00
2019-03-10T04:50:40.749Z,100.00
2019-03-10T04:53:28.671Z,100.00
2019-03-10T04:56:16.480Z,100.00
2019-03-10T04:59:04.181Z,100.00
2019-03-10T05:01:52.147Z,100.00
2019-03-10T05:04:39.995Z,100.00
2019-03-10T05:07:27.833Z,100.00
2019-03-10T05:10:15.738Z,100.00
2019-03-10T05:12:44.402Z,100.00
2019-03-10T05:15:32.225Z,100.00
2019-03-10T05:18:00.884Z,100.00
2019-03-10T05:20:48.770Z,100.00
2019-03-10T05:24:00.164Z,100.00
2019-03-10T05:29:23.565Z,100.00
2019-03-10T05:31:52.198Z,100.00
2019-03-10T05:34:20.819Z,100.00
2019-03-10T05:37:08.675Z,100.00
2019-03-10T05:39:56.616Z,100.00
2019-03-10T05:42:44.640Z,100.00
2019-03-10T05:45:33.280Z,100.00
2019-03-10T05:48:02.149Z,100.00
2019-03-10T05:50:30.784Z,100.00
2019-03-10T05:53:39.273Z,100.00
2019-03-10T05:56:07.907Z,100.00
2019-03-10T05:58:37.270Z,100.00
2019-03-10T06:01:06.002Z,100.00
2019-03-10T06:03:34.592Z,100.00
2019-03-10T06:06:22.460Z,100.00
2019-03-10T06:08:51.163Z,100.00
2019-03-10T06:11:19.812Z,100.00
2019-03-10T06:14:08.002Z,100.00
2019-03-10T06:16:36.674Z,100.00
2019-03-10T06:19:24.604Z,100.00
2019-03-10T06:22:12.513Z,100.00
2019-03-10T06:25:00.421Z,100.00
2019-03-10T06:27:48.306Z,100.00
2019-03-10T06:30:36.274Z,100.00
2019-03-10T06:33:04.948Z,100.00
2019-03-10T06:35:52.828Z,100.00
2019-03-10T06:38:21.480Z,100.00
2019-03-10T06:40:50.169Z,100.00
2019-03-10T06:43:58.620Z,100.00
2019-03-10T06:46:46.477Z,100.00
2019-03-10T06:49:34.298Z,100.00
2019-03-10T06:52:22.243Z,100.00
2019-03-10T06:55:10.161Z,100.00
2019-03-10T06:57:38.848Z,100.00
2019-03-10T07:00:26.814Z,100.00
2019-03-10T07:02:55.459Z,100.00
2019-03-10T07:05:43.209Z,100.00
2019-03-10T07:08:11.722Z,100.00
2019-03-10T07:10:59.651Z,100.00
2019-03-10T07:13:47.493Z,100.00
2019-03-10T07:16:35.417Z,100.00
2019-03-10T07:19:23.365Z,100.00
2019-03-10T07:22:11.268Z,100.00
2019-03-10T07:24:59.133Z,100.00
2019-03-10T07:28:06.177Z,100.00
2019-03-10T07:33:48.512Z,100.00
2019-03-10T07:36:55.505Z,100.00
2019-03-10T07:42:51.714Z,100.00
2019-03-10T07:45:39.535Z,100.00
2019-03-10T07:48:27.245Z,100.00
2019-03-10T07:51:34.158Z,100.00
2019-03-10T07:57:11.209Z,100.00
2019-03-10T08:00:18.158Z,100.00
2019-03-10T08:06:00.921Z,100.00
2019-03-10T08:08:48.743Z,100.00
2019-03-10T08:11:55.703Z,100.00
2019-03-10T08:15:02.713Z,100.00
2019-03-10T08:20:58.859Z,100.00
2019-03-10T08:23:46.666Z,100.00
2019-03-10T08:26:53.652Z,100.00
2019-03-10T08:33:09.051Z,100.00
2019-03-10T08:39:05.266Z,100.00
2019-03-10T08:47:17.750Z,100.00
2019-03-10T08:50:24.648Z,100.00
2019-03-10T08:53:12.519Z,100.00
2019-03-10T08:56:00.420Z,100.00
2019-03-10T09:01:23.613Z,100.00
2019-03-10T09:04:11.406Z,100.00
2019-03-10T09:06:59.215Z,100.00
2019-03-10T09:10:06.274Z,100.00
2019-03-10T09:15:37.198Z,100.00
2019-03-10T09:18:44.308Z,100.00
2019-03-10T09:21:32.030Z,100.00
2019-03-10T09:24:39.042Z,100.00
2019-03-10T09:27:45.993Z,100.00
2019-03-10T09:30:53.211Z,100.00
2019-03-10T09:34:00.398Z,100.00
2019-03-10T09:37:07.534Z,100.00
2019-03-10T09:40:14.520Z,100.00
2019-03-10T09:43:21.875Z,100.00
2019-03-10T09:46:28.889Z,100.00
2019-03-10T09:49:37.473Z,100.00
2019-03-10T09:52:25.244Z,100.00
2019-03-10T09:55:13.429Z,100.00
2019-03-10T10:00:41.382Z,100.00
2019-03-10T10:03:30.083Z,100.00
2019-03-10T10:09:15.921Z,100.00
2019-03-10T10:12:13.058Z,100.00
2019-03-10T10:15:14.537Z,100.00
2019-03-10T10:20:38.633Z,100.00
2019-03-10T10:23:26.453Z,100.00
2019-03-10T10:26:14.496Z,100.00
2019-03-10T10:29:21.747Z,100.00
2019-03-10T10:32:30.212Z,100.00
2019-03-10T10:35:37.481Z,100.00
2019-03-10T10:38:46.040Z,100.00
2019-03-10T10:41:33.856Z,100.00
2019-03-10T10:44:21.773Z,100.00
2019-03-10T10:47:09.639Z,100.00
2019-03-10T10:50:16.708Z,100.00
2019-03-10T10:53:04.586Z,100.00
2019-03-10T10:55:52.450Z,100.00
2019-03-10T10:58:59.654Z,100.00
2019-03-10T11:02:08.304Z,100.00
2019-03-10T11:05:15.242Z,100.00
2019-03-10T11:08:24.109Z,100.00
2019-03-10T11:11:32.932Z,100.00
2019-03-10T11:17:29.310Z,100.00
2019-03-10T11:20:36.354Z,100.00
2019-03-10T11:28:56.226Z,100.00
2019-03-10T11:31:44.043Z,100.00
2019-03-10T11:34:31.858Z,100.00
2019-03-10T11:37:38.933Z,100.00
2019-03-10T11:40:47.397Z,100.00
2019-03-10T11:43:35.172Z,100.00
2019-03-10T11:46:42.335Z,100.00
2019-03-10T11:49:49.720Z,100.00
2019-03-10T11:55:47.362Z,100.00
2019-03-10T11:58:35.381Z,100.00
2019-03-10T12:04:37.507Z,100.00
2019-03-10T12:07:25.410Z,100.00
2019-03-10T12:10:13.237Z,100.00
2019-03-10T12:15:35.737Z,100.00
2019-03-10T12:18:04.408Z,100.00
2019-03-10T12:20:33.155Z,99.32
2019-03-10T12:23:01.978Z,98.60
2019-03-10T12:25:30.638Z,95.46
2019-03-10T12:28:18.640Z,94.56
2019-03-10T12:33:21.978Z,93.43
2019-03-10T12:36:10.000Z,93.59
2019-03-10T12:41:26.453Z,96.28
2019-03-10T12:46:29.362Z,96.19
2019-03-10T12:48:58.024Z,96.74
2019-03-10T12:51:26.825Z,94.15
2019-03-10T12:53:55.767Z,93.67
2019-03-10T12:56:43.636Z,92.54
2019-03-10T12:59:31.590Z,92.04
2019-03-10T13:02:19.548Z,89.90
2019-03-10T13:04:48.273Z,90.31
2019-03-10T13:07:16.971Z,93.94
2019-03-10T13:09:45.877Z,91.89
2019-03-10T13:12:33.847Z,93.43
2019-03-10T13:17:36.499Z,91.13
2019-03-10T13:20:44.939Z,89.56
2019-03-10T13:25:49.147Z,82.25
2019-03-10T13:28:37.154Z,79.75
2019-03-10T13:31:25.104Z,79.73
2019-03-10T13:33:53.892Z,81.34
2019-03-10T13:36:41.872Z,78.28
2019-03-10T13:39:29.846Z,77.14
2019-03-10T13:41:58.551Z,73.93
2019-03-10T13:44:27.357Z,70.44
2019-03-10T13:46:56.409Z,67.11
2019-03-10T13:49:25.060Z,62.79
2019-03-10T13:51:53.863Z,62.48
2019-03-10T13:54:22.643Z,57.52
2019-03-10T13:56:51.557Z,57.01
2019-03-10T13:59:20.385Z,58.86
2019-03-10T14:01:49.139Z,57.68
2019-03-10T14:07:05.423Z,56.92
2019-03-10T14:09:53.461Z,57.40
2019-03-10T14:12:22.155Z,54.58
2019-03-10T14:15:10.149Z,52.60
2019-03-10T14:17:39.049Z,54.80
2019-03-10T14:20:47.550Z,55.70
2019-03-10T14:23:35.493Z,54.30
2019-03-10T14:28:38.475Z,56.25
2019-03-10T14:31:07.205Z,54.10
2019-03-10T14:33:36.073Z,53.88
2019-03-10T14:36:04.748Z,55.64
2019-03-10T14:38:52.714Z,52.72
2019-03-10T14:44:09.307Z,56.47
2019-03-10T14:46:38.111Z,55.22
2019-03-10T14:49:06.740Z,54.41
2019-03-10T14:51:35.537Z,54.58
2019-03-10T14:54:23.663Z,53.91
2019-03-10T14:57:11.698Z,53.09
2019-03-10T14:59:40.537Z,51.62
2019-03-10T15:02:48.946Z,51.46
2019-03-10T15:08:10.889Z,51.73
2019-03-10T15:10:58.716Z,51.24
2019-03-10T15:13:27.598Z,51.95
2019-03-10T15:15:56.292Z,50.71
2019-03-10T15:20:59.715Z,51.59
2019-03-10T15:26:16.205Z,53.07
2019-03-10T15:28:44.874Z,54.83
2019-03-10T15:31:13.701Z,55.00
2019-03-10T15:34:01.668Z,55.10
2019-03-10T15:36:49.619Z,54.74
2019-03-10T15:42:53.072Z,51.38
2019-03-10T15:45:41.100Z,53.50
2019-03-10T15:48:10.050Z,50.68
2019-03-10T15:51:18.635Z,47.54
2019-03-10T15:54:06.430Z,45.93
2019-03-10T15:56:35.213Z,45.58
2019-03-10T15:59:04.099Z,45.25
2019-03-10T16:01:51.953Z,45.01
2019-03-10T16:05:00.427Z,45.56
2019-03-10T16:07:29.204Z,45.50
2019-03-10T16:10:17.070Z,45.08
2019-03-10T16:13:04.976Z,44.15
2019-03-10T16:15:33.944Z,45.59
2019-03-10T16:18:21.827Z,46.55
2019-03-10T16:24:03.525Z,50.00
2019-03-10T16:26:32.265Z,51.71
2019-03-10T16:31:35.768Z,56.96
2019-03-10T16:34:04.471Z,58.23
2019-03-10T16:36:52.511Z,58.88
2019-03-10T16:39:40.622Z,59.11
2019-03-10T16:42:09.399Z,58.68
2019-03-10T16:44:57.331Z,58.61
2019-03-10T16:47:26.047Z,58.76
2019-03-10T16:49:54.936Z,59.42
2019-03-10T16:52:42.748Z,58.10
2019-03-10T16:56:02.085Z,56.25
2019-03-10T16:58:21.955Z,54.68
2019-03-10T17:00:57.741Z,54.55
2019-03-10T17:03:45.839Z,50.78
2019-03-10T17:06:14.814Z,51.38
2019-03-10T17:09:04.687Z,49.73
2019-03-10T17:11:33.351Z,47.73
2019-03-10T17:14:21.292Z,48.42
2019-03-10T17:22:43.021Z,47.04
2019-03-10T17:25:51.559Z,44.85
2019-03-10T17:28:39.488Z,45.71
2019-03-10T17:33:56.006Z,45.16
2019-03-10T17:36:25.008Z,46.18
2019-03-10T17:42:07.058Z,45.33
2019-03-10T17:44:41.152Z,45.82
2019-03-10T17:47:06.879Z,45.78
2019-03-10T17:49:55.153Z,45.60
2019-03-10T17:52:43.467Z,46.21
2019-03-10T17:55:52.088Z,45.60
2019-03-10T17:58:40.156Z,46.04
2019-03-10T18:04:08.123Z,46.02
2019-03-10T18:06:56.355Z,47.22
2019-03-10T18:09:25.267Z,47.33
2019-03-10T18:12:13.500Z,47.26
2019-03-10T18:14:42.595Z,47.04
2019-03-10T18:20:58.732Z,48.29
2019-03-10T18:23:27.972Z,48.61
2019-03-10T18:29:05.765Z,48.67
2019-03-10T18:31:34.639Z,49.10
2019-03-10T18:34:22.718Z,49.30
2019-03-10T18:37:10.715Z,49.41
2019-03-10T18:39:39.710Z,50.43
2019-03-10T18:42:08.555Z,52.66
2019-03-10T18:44:56.915Z,54.23
2019-03-10T18:47:27.459Z,56.29
2019-03-10T18:50:35.588Z,58.76
2019-03-10T18:53:04.645Z,61.75
2019-03-10T18:55:33.582Z,62.76
2019-03-10T18:58:02.505Z,62.75
2019-03-10T19:03:25.916Z,60.89
2019-03-10T19:14:48.488Z,69.79
2019-03-10T19:17:36.763Z,71.45
2019-03-10T19:20:18.328Z,68.79
2019-03-10T19:22:59.585Z,66.57
2019-03-10T19:25:48.214Z,66.78
2019-03-10T19:28:18.910Z,66.62
2019-03-10T19:31:08.570Z,65.45
2019-03-10T19:33:57.915Z,66.81
2019-03-10T19:36:56.584Z,66.15
2019-03-10T19:39:36.318Z,65.97
2019-03-10T19:42:45.121Z,67.07
2019-03-10T19:45:33.928Z,66.04
2019-03-10T19:51:17.352Z,67.10
2019-03-10T19:54:05.793Z,66.49
2019-03-10T20:00:02.558Z,63.64
2019-03-10T20:02:50.704Z,65.05
2019-03-10T20:17:44.463Z,59.24
2019-03-10T20:20:53.180Z,59.88
2019-03-10T20:35:34.910Z,55.64
2019-03-10T20:41:16.980Z,55.44
2019-03-10T20:58:57.298Z,53.21
2019-03-10T21:01:45.865Z,53.96
2019-03-10T21:04:14.765Z,55.15
2019-03-10T21:07:23.427Z,55.30
2019-03-10T21:09:52.194Z,55.45
2019-03-10T21:12:20.944Z,55.11
2019-03-10T21:14:49.877Z,54.78
2019-03-10T21:20:25.971Z,54.34
2019-03-10T21:22:54.660Z,54.01
2019-03-10T21:26:03.344Z,55.37
2019-03-10T21:28:32.324Z,55.68
2019-03-10T21:31:03.029Z,56.14
2019-03-10T21:33:51.186Z,56.63
2019-03-10T21:36:20.066Z,56.83
2019-03-10T21:38:48.972Z,57.67
2019-03-10T21:41:37.094Z,57.96
2019-03-10T21:44:05.864Z,57.97
2019-03-10T21:46:34.547Z,57.69
2019-03-10T21:49:22.367Z,58.24
2019-03-10T21:51:51.142Z,56.96
2019-03-10T21:54:39.102Z,56.82
2019-03-10T21:57:07.789Z,56.57
2019-03-10T21:59:36.534Z,56.69
2019-03-10T22:04:38.982Z,55.56
2019-03-10T22:07:07.646Z,56.62
2019-03-10T22:09:36.376Z,56.07
2019-03-10T22:12:05.122Z,55.92
2019-03-10T22:14:33.888Z,56.37
2019-03-10T22:17:02.541Z,55.81
2019-03-10T22:19:31.229Z,55.96
2019-03-10T22:21:59.814Z,56.43
2019-03-10T22:24:47.743Z,56.56
2019-03-10T22:27:16.422Z,55.82
2019-03-10T22:29:45.214Z,56.28
2019-03-10T22:32:13.884Z,56.22
2019-03-10T22:34:42.531Z,56.91
2019-03-10T22:39:58.762Z,57.12
2019-03-10T22:42:27.470Z,57.90
2019-03-10T22:44:56.174Z,57.42
2019-03-10T22:47:24.872Z,58.65
2019-03-10T22:49:53.552Z,58.39
2019-03-10T22:52:22.227Z,58.46
2019-03-10T22:54:50.904Z,58.07
2019-03-10T22:57:19.489Z,58.47
2019-03-10T23:00:07.336Z,58.91
2019-03-10T23:02:36.018Z,58.75
2019-03-10T23:05:44.489Z,58.40
2019-03-10T23:08:13.132Z,58.33
2019-03-10T23:13:16.473Z,57.62
2019-03-10T23:18:52.097Z,58.22
2019-03-10T23:21:20.693Z,57.48
2019-03-10T23:24:08.505Z,57.61
2019-03-10T23:26:37.168Z,58.10
2019-03-10T23:29:05.848Z,58.55
2019-03-10T23:31:53.682Z,58.15
2019-03-10T23:34:22.331Z,58.75
2019-03-10T23:36:50.971Z,58.77
2019-03-10T23:39:19.805Z,58.26
2019-03-10T23:42:07.781Z,58.63
2019-03-10T23:44:55.602Z,59.61
2019-03-10T23:47:43.487Z,59.33
2019-03-10T23:50:51.973Z,59.57
2019-03-10T23:53:39.785Z,59.32
2019-03-10T23:56:27.647Z,60.35
2019-03-10T23:59:15.490Z,60.43
